Aviation Digital Data Service (ADDS)

Output produced by TAFs form (0336 UTC 01 September 2016)
found at http://aviationweather.gov/adds/tafs/
 
KTEX 312329Z 0100/0124 27007KT P6SM VCTS SCT060CB BKN120 
     FM010400 12004KT P6SM FEW060 SCT120 
     FM011700 25006KT P6SM VCTS SCT060CB BKN200 
     FM012000 26006KT P6SM -SHRA VCTS BKN080CB 
     FM012200 25004KT P6SM VCTS BKN080CB